sensor_id;sensor_type;location;lat;lon;timestamp;pressure;altitude;pressure_sealevel;temperature;humidity
2339;BME280;1180;51.438;6.978;2022-07-23T00:01:28;100504.22;;;20.63;94.28
2339;BME280;1180;51.438;6.978;2022-07-23T00:03:54;100494.88;;;20.61;94.91
2339;BME280;1180;51.438;6.978;2022-07-23T00:06:20;100506.22;;;20.52;95.30
2339;BME280;1180;51.438;6.978;2022-07-23T00:08:45;100507.34;;;20.49;94.94
2339;BME280;1180;51.438;6.978;2022-07-23T00:11:11;100510.09;;;20.47;94.87
2339;BME280;1180;51.438;6.978;2022-07-23T00:13:36;100506.66;;;20.47;95.91
2339;BME280;1180;51.438;6.978;2022-07-23T00:16:02;100509.06;;;20.40;96.18
2339;BME280;1180;51.438;6.978;2022-07-23T00:18:28;100506.47;;;20.40;96.22
2339;BME280;1180;51.438;6.978;2022-07-23T00:20:53;100497.81;;;20.40;96.13
2339;BME280;1180;51.438;6.978;2022-07-23T00:23:18;100507.13;;;20.42;95.91
2339;BME280;1180;51.438;6.978;2022-07-23T00:25:44;100502.66;;;20.34;95.42
2339;BME280;1180;51.438;6.978;2022-07-23T00:28:12;100501.03;;;20.33;96.31
2339;BME280;1180;51.438;6.978;2022-07-23T00:30:38;100496.47;;;20.35;96.94
2339;BME280;1180;51.438;6.978;2022-07-23T00:33:06;100496.78;;;20.32;96.86
2339;BME280;1180;51.438;6.978;2022-07-23T00:35:34;100489.09;;;20.31;96.76
2339;BME280;1180;51.438;6.978;2022-07-23T00:37:59;100490.72;;;20.32;97.17
2339;BME280;1180;51.438;6.978;2022-07-23T00:40:26;100488.59;;;20.27;96.56
2339;BME280;1180;51.438;6.978;2022-07-23T00:42:52;100483.75;;;20.32;96.60
2339;BME280;1180;51.438;6.978;2022-07-23T00:45:17;100488.28;;;20.30;96.97
2339;BME280;1180;51.438;6.978;2022-07-23T00:47:43;100485.50;;;20.32;96.18
2339;BME280;1180;51.438;6.978;2022-07-23T00:50:09;100481.22;;;20.23;96.96
2339;BME280;1180;51.438;6.978;2022-07-23T00:52:36;100482.31;;;20.20;97.19
2339;BME280;1180;51.438;6.978;2022-07-23T00:55:03;100482.19;;;20.22;97.40
2339;BME280;1180;51.438;6.978;2022-07-23T00:57:29;100485.16;;;20.27;97.33
2339;BME280;1180;51.438;6.978;2022-07-23T00:59:55;100483.94;;;20.21;97.89
2339;BME280;1180;51.438;6.978;2022-07-23T01:02:21;100484.25;;;20.18;98.36
2339;BME280;1180;51.438;6.978;2022-07-23T01:04:46;100490.44;;;20.17;98.13
2339;BME280;1180;51.438;6.978;2022-07-23T01:07:12;100494.16;;;20.14;98.46
2339;BME280;1180;51.438;6.978;2022-07-23T01:09:37;100494.66;;;20.18;98.25
2339;BME280;1180;51.438;6.978;2022-07-23T01:12:03;100496.78;;;20.14;98.02
2339;BME280;1180;51.438;6.978;2022-07-23T01:14:28;100501.50;;;20.01;97.86
2339;BME280;1180;51.438;6.978;2022-07-23T01:16:53;100498.75;;;20.02;97.57
2339;BME280;1180;51.438;6.978;2022-07-23T01:19:19;100487.66;;;20.00;98.02
2339;BME280;1180;51.438;6.978;2022-07-23T01:21:47;100488.72;;;20.08;97.84
2339;BME280;1180;51.438;6.978;2022-07-23T01:24:13;100498.47;;;20.05;97.94
2339;BME280;1180;51.438;6.978;2022-07-23T01:26:42;100499.44;;;20.04;98.36
2339;BME280;1180;51.438;6.978;2022-07-23T01:29:08;100488.78;;;20.16;97.80
2339;BME280;1180;51.438;6.978;2022-07-23T01:31:33;100498.53;;;20.14;98.33
2339;BME280;1180;51.438;6.978;2022-07-23T01:33:58;100497.44;;;20.16;98.49
2339;BME280;1180;51.438;6.978;2022-07-23T01:36:24;100493.19;;;20.15;98.32
2339;BME280;1180;51.438;6.978;2022-07-23T01:38:50;100496.69;;;20.06;98.52
2339;BME280;1180;51.438;6.978;2022-07-23T01:41:15;100491.25;;;19.99;98.81
2339;BME280;1180;51.438;6.978;2022-07-23T01:43:41;100487.00;;;19.98;99.48
2339;BME280;1180;51.438;6.978;2022-07-23T01:46:06;100492.72;;;20.02;99.44
2339;BME280;1180;51.438;6.978;2022-07-23T01:48:32;100488.72;;;20.08;99.74
2339;BME280;1180;51.438;6.978;2022-07-23T01:50:57;100476.41;;;20.00;99.72
2339;BME280;1180;51.438;6.978;2022-07-23T01:53:23;100473.31;;;19.96;100.00
2339;BME280;1180;51.438;6.978;2022-07-23T01:55:48;100471.50;;;19.97;99.89
2339;BME280;1180;51.438;6.978;2022-07-23T01:58:13;100472.84;;;20.01;99.98
2339;BME280;1180;51.438;6.978;2022-07-23T02:00:39;100472.03;;;20.00;99.95
2339;BME280;1180;51.438;6.978;2022-07-23T02:03:04;100484.03;;;19.93;99.62
2339;BME280;1180;51.438;6.978;2022-07-23T02:05:30;100484.81;;;19.94;100.00
2339;BME280;1180;51.438;6.978;2022-07-23T02:07:58;100482.47;;;20.00;99.76
2339;BME280;1180;51.438;6.978;2022-07-23T02:10:24;100485.06;;;20.00;99.41
2339;BME280;1180;51.438;6.978;2022-07-23T02:12:49;100487.72;;;19.90;99.56
2339;BME280;1180;51.438;6.978;2022-07-23T02:15:15;100485.81;;;19.83;99.52
2339;BME280;1180;51.438;6.978;2022-07-23T02:17:40;100477.13;;;19.74;100.00
2339;BME280;1180;51.438;6.978;2022-07-23T02:20:06;100477.25;;;19.72;100.00
2339;BME280;1180;51.438;6.978;2022-07-23T02:22:32;100477.91;;;19.74;100.00
2339;BME280;1180;51.438;6.978;2022-07-23T02:24:58;100480.44;;;19.66;100.00
2339;BME280;1180;51.438;6.978;2022-07-23T02:27:23;100476.63;;;19.60;100.00
2339;BME280;1180;51.438;6.978;2022-07-23T02:29:49;100474.16;;;19.31;100.00
2339;BME280;1180;51.438;6.978;2022-07-23T02:32:14;100478.38;;;19.42;100.00
2339;BME280;1180;51.438;6.978;2022-07-23T02:34:40;100474.50;;;19.46;100.00
2339;BME280;1180;51.438;6.978;2022-07-23T02:37:05;100479.06;;;19.34;100.00
2339;BME280;1180;51.438;6.978;2022-07-23T02:39:30;100484.84;;;19.28;100.00
2339;BME280;1180;51.438;6.978;2022-07-23T02:41:56;100487.16;;;19.31;100.00
2339;BME280;1180;51.438;6.978;2022-07-23T02:44:21;100481.97;;;19.31;100.00
2339;BME280;1180;51.438;6.978;2022-07-23T02:46:46;100479.78;;;19.26;100.00
2339;BME280;1180;51.438;6.978;2022-07-23T02:49:12;100476.91;;;19.19;100.00
2339;BME280;1180;51.438;6.978;2022-07-23T02:51:37;100471.56;;;19.31;100.00
2339;BME280;1180;51.438;6.978;2022-07-23T02:54:03;100473.31;;;19.30;100.00
2339;BME280;1180;51.438;6.978;2022-07-23T02:56:28;100473.19;;;19.32;100.00
2339;BME280;1180;51.438;6.978;2022-07-23T02:58:53;100478.72;;;19.19;100.00
2339;BME280;1180;51.438;6.978;2022-07-23T03:01:19;100477.28;;;19.34;100.00
2339;BME280;1180;51.438;6.978;2022-07-23T03:03:44;100478.63;;;19.39;100.00
2339;BME280;1180;51.438;6.978;2022-07-23T03:06:09;100472.63;;;19.38;100.00
2339;BME280;1180;51.438;6.978;2022-07-23T03:08:35;100475.22;;;19.38;100.00
2339;BME280;1180;51.438;6.978;2022-07-23T03:11:00;100480.50;;;19.46;100.00
2339;BME280;1180;51.438;6.978;2022-07-23T03:13:26;100471.06;;;19.45;100.00
2339;BME280;1180;51.438;6.978;2022-07-23T03:15:51;100471.25;;;19.34;100.00
2339;BME280;1180;51.438;6.978;2022-07-23T03:18:16;100463.16;;;19.37;100.00
2339;BME280;1180;51.438;6.978;2022-07-23T03:20:42;100463.72;;;19.41;100.00
2339;BME280;1180;51.438;6.978;2022-07-23T03:23:07;100461.28;;;19.29;100.00
2339;BME280;1180;51.438;6.978;2022-07-23T03:25:33;100458.38;;;19.32;100.00
2339;BME280;1180;51.438;6.978;2022-07-23T03:27:58;100467.44;;;19.28;100.00
2339;BME280;1180;51.438;6.978;2022-07-23T03:30:23;100476.66;;;19.23;100.00
2339;BME280;1180;51.438;6.978;2022-07-23T03:32:49;100469.56;;;19.15;100.00
2339;BME280;1180;51.438;6.978;2022-07-23T03:35:14;100471.88;;;19.08;100.00
2339;BME280;1180;51.438;6.978;2022-07-23T03:37:40;100474.88;;;19.13;100.00
2339;BME280;1180;51.438;6.978;2022-07-23T03:40:06;100474.19;;;19.11;100.00
2339;BME280;1180;51.438;6.978;2022-07-23T03:42:31;100472.97;;;19.15;100.00
2339;BME280;1180;51.438;6.978;2022-07-23T03:44:57;100475.56;;;19.15;100.00
2339;BME280;1180;51.438;6.978;2022-07-23T03:47:22;100476.22;;;19.17;100.00
2339;BME280;1180;51.438;6.978;2022-07-23T03:49:48;100477.38;;;19.05;100.00
2339;BME280;1180;51.438;6.978;2022-07-23T03:52:13;100482.28;;;19.08;100.00
2339;BME280;1180;51.438;6.978;2022-07-23T03:54:39;100480.53;;;18.99;100.00
2339;BME280;1180;51.438;6.978;2022-07-23T03:57:04;100480.25;;;19.02;100.00
2339;BME280;1180;51.438;6.978;2022-07-23T03:59:30;100481.75;;;18.95;100.00
2339;BME280;1180;51.438;6.978;2022-07-23T04:01:55;100484.22;;;19.06;100.00
2339;BME280;1180;51.438;6.978;2022-07-23T04:04:20;100487.38;;;19.00;100.00
2339;BME280;1180;51.438;6.978;2022-07-23T04:06:46;100484.59;;;19.11;100.00
2339;BME280;1180;51.438;6.978;2022-07-23T04:09:11;100487.38;;;19.00;100.00
2339;BME280;1180;51.438;6.978;2022-07-23T04:11:37;100491.63;;;19.01;100.00
2339;BME280;1180;51.438;6.978;2022-07-23T04:14:02;100493.66;;;18.87;100.00
2339;BME280;1180;51.438;6.978;2022-07-23T04:16:27;100487.25;;;18.91;100.00
2339;BME280;1180;51.438;6.978;2022-07-23T04:18:53;100492.97;;;19.05;100.00
2339;BME280;1180;51.438;6.978;2022-07-23T04:21:19;100493.13;;;18.94;100.00
2339;BME280;1180;51.438;6.978;2022-07-23T04:23:44;100492.16;;;18.85;100.00
2339;BME280;1180;51.438;6.978;2022-07-23T04:26:09;100498.75;;;18.79;100.00
2339;BME280;1180;51.438;6.978;2022-07-23T04:28:35;100493.69;;;18.77;100.00
2339;BME280;1180;51.438;6.978;2022-07-23T04:31:00;100491.50;;;18.83;100.00
2339;BME280;1180;51.438;6.978;2022-07-23T04:33:25;100499.41;;;18.81;100.00
2339;BME280;1180;51.438;6.978;2022-07-23T04:35:51;100506.41;;;18.81;100.00
2339;BME280;1180;51.438;6.978;2022-07-23T04:38:16;100504.91;;;18.78;100.00
2339;BME280;1180;51.438;6.978;2022-07-23T04:40:42;100507.78;;;18.85;100.00
2339;BME280;1180;51.438;6.978;2022-07-23T04:43:07;100509.25;;;18.87;100.00
2339;BME280;1180;51.438;6.978;2022-07-23T04:45:33;100511.59;;;18.90;100.00
2339;BME280;1180;51.438;6.978;2022-07-23T04:47:58;100516.81;;;18.90;100.00
2339;BME280;1180;51.438;6.978;2022-07-23T04:50:23;100522.53;;;18.84;100.00
2339;BME280;1180;51.438;6.978;2022-07-23T04:52:49;100513.25;;;18.82;100.00
2339;BME280;1180;51.438;6.978;2022-07-23T04:55:15;100513.66;;;18.87;100.00
2339;BME280;1180;51.438;6.978;2022-07-23T04:57:40;100519.41;;;18.90;100.00
2339;BME280;1180;51.438;6.978;2022-07-23T05:00:07;100518.31;;;18.83;100.00
2339;BME280;1180;51.438;6.978;2022-07-23T05:02:32;100513.94;;;18.64;100.00
2339;BME280;1180;51.438;6.978;2022-07-23T05:04:58;100518.56;;;18.70;100.00
2339;BME280;1180;51.438;6.978;2022-07-23T05:07:23;100515.97;;;18.70;100.00
2339;BME280;1180;51.438;6.978;2022-07-23T05:09:49;100531.19;;;18.85;100.00
2339;BME280;1180;51.438;6.978;2022-07-23T05:12:14;100530.22;;;18.86;100.00
2339;BME280;1180;51.438;6.978;2022-07-23T05:14:40;100534.56;;;18.95;100.00
2339;BME280;1180;51.438;6.978;2022-07-23T05:17:05;100529.81;;;18.90;100.00
2339;BME280;1180;51.438;6.978;2022-07-23T05:19:33;100536.66;;;18.91;100.00
2339;BME280;1180;51.438;6.978;2022-07-23T05:21:58;100532.66;;;18.97;100.00
2339;BME280;1180;51.438;6.978;2022-07-23T05:24:24;100533.34;;;19.09;100.00
2339;BME280;1180;51.438;6.978;2022-07-23T05:26:49;100535.38;;;19.15;100.00
2339;BME280;1180;51.438;6.978;2022-07-23T05:29:15;100543.19;;;19.15;100.00
2339;BME280;1180;51.438;6.978;2022-07-23T05:31:40;100544.84;;;19.16;100.00
2339;BME280;1180;51.438;6.978;2022-07-23T05:34:05;100541.72;;;19.13;100.00
2339;BME280;1180;51.438;6.978;2022-07-23T05:36:32;100548.69;;;19.12;100.00
2339;BME280;1180;51.438;6.978;2022-07-23T05:38:57;100552.53;;;19.08;100.00
2339;BME280;1180;51.438;6.978;2022-07-23T05:41:23;100553.88;;;19.12;100.00
2339;BME280;1180;51.438;6.978;2022-07-23T05:43:48;100556.59;;;19.20;100.00
2339;BME280;1180;51.438;6.978;2022-07-23T05:46:13;100549.91;;;19.28;100.00
2339;BME280;1180;51.438;6.978;2022-07-23T05:48:39;100554.25;;;19.37;100.00
2339;BME280;1180;51.438;6.978;2022-07-23T05:51:04;100558.19;;;19.51;100.00
2339;BME280;1180;51.438;6.978;2022-07-23T05:53:32;100558.03;;;19.53;100.00
2339;BME280;1180;51.438;6.978;2022-07-23T05:55:58;100556.66;;;19.48;100.00
2339;BME280;1180;51.438;6.978;2022-07-23T05:58:23;100561.31;;;19.55;100.00
2339;BME280;1180;51.438;6.978;2022-07-23T06:00:48;100558.97;;;19.61;98.71
2339;BME280;1180;51.438;6.978;2022-07-23T06:03:14;100569.91;;;19.65;99.84
2339;BME280;1180;51.438;6.978;2022-07-23T06:05:39;100565.56;;;19.56;99.78
2339;BME280;1180;51.438;6.978;2022-07-23T06:08:05;100565.38;;;19.67;99.75
2339;BME280;1180;51.438;6.978;2022-07-23T06:10:30;100569.88;;;19.75;99.45
2339;BME280;1180;51.438;6.978;2022-07-23T06:12:56;100561.22;;;19.84;98.82
2339;BME280;1180;51.438;6.978;2022-07-23T06:15:21;100571.63;;;19.84;98.55
2339;BME280;1180;51.438;6.978;2022-07-23T06:17:46;100563.25;;;19.90;98.13
2339;BME280;1180;51.438;6.978;2022-07-23T06:20:12;100577.34;;;19.88;98.66
2339;BME280;1180;51.438;6.978;2022-07-23T06:22:37;100574.16;;;20.04;97.32
2339;BME280;1180;51.438;6.978;2022-07-23T06:25:03;100579.50;;;20.02;97.83
2339;BME280;1180;51.438;6.978;2022-07-23T06:27:28;100580.56;;;20.10;97.46
2339;BME280;1180;51.438;6.978;2022-07-23T06:29:54;100579.31;;;20.14;98.09
2339;BME280;1180;51.438;6.978;2022-07-23T06:32:19;100577.75;;;20.21;97.55
2339;BME280;1180;51.438;6.978;2022-07-23T06:34:45;100579.13;;;20.25;96.30
2339;BME280;1180;51.438;6.978;2022-07-23T06:37:10;100583.50;;;20.25;96.45
2339;BME280;1180;51.438;6.978;2022-07-23T06:39:36;100577.69;;;20.31;97.39
2339;BME280;1180;51.438;6.978;2022-07-23T06:42:01;100579.81;;;20.27;97.46
2339;BME280;1180;51.438;6.978;2022-07-23T06:44:27;100578.34;;;20.15;97.68
2339;BME280;1180;51.438;6.978;2022-07-23T06:46:52;100588.13;;;20.31;96.89
2339;BME280;1180;51.438;6.978;2022-07-23T06:49:17;100590.53;;;20.42;96.24
2339;BME280;1180;51.438;6.978;2022-07-23T06:51:43;100589.94;;;20.48;96.53
2339;BME280;1180;51.438;6.978;2022-07-23T06:54:10;100592.94;;;20.54;94.97
2339;BME280;1180;51.438;6.978;2022-07-23T06:56:35;100595.22;;;20.39;94.42
2339;BME280;1180;51.438;6.978;2022-07-23T06:59:01;100592.41;;;20.50;94.72
2339;BME280;1180;51.438;6.978;2022-07-23T07:01:26;100595.16;;;20.48;94.23
2339;BME280;1180;51.438;6.978;2022-07-23T07:03:52;100595.22;;;20.39;96.14
2339;BME280;1180;51.438;6.978;2022-07-23T07:06:17;100596.91;;;20.30;95.72
2339;BME280;1180;51.438;6.978;2022-07-23T07:08:42;100595.31;;;20.19;96.04
2339;BME280;1180;51.438;6.978;2022-07-23T07:11:09;100600.88;;;20.34;96.88
2339;BME280;1180;51.438;6.978;2022-07-23T07:13:34;100602.75;;;20.14;95.88
2339;BME280;1180;51.438;6.978;2022-07-23T07:16:00;100602.53;;;20.07;94.31
2339;BME280;1180;51.438;6.978;2022-07-23T07:18:25;100599.59;;;19.92;95.43
2339;BME280;1180;51.438;6.978;2022-07-23T07:20:50;100602.53;;;20.07;94.31
2339;BME280;1180;51.438;6.978;2022-07-23T07:23:16;100606.88;;;20.16;95.34
2339;BME280;1180;51.438;6.978;2022-07-23T07:25:41;100600.06;;;20.52;94.41
2339;BME280;1180;51.438;6.978;2022-07-23T07:28:06;100605.00;;;20.73;92.34
2339;BME280;1180;51.438;6.978;2022-07-23T07:30:32;100609.72;;;20.87;92.20
2339;BME280;1180;51.438;6.978;2022-07-23T07:32:57;100609.72;;;20.87;88.99
2339;BME280;1180;51.438;6.978;2022-07-23T07:35:23;100613.75;;;21.00;91.04
2339;BME280;1180;51.438;6.978;2022-07-23T07:37:48;100605.09;;;20.81;88.08
2339;BME280;1180;51.438;6.978;2022-07-23T07:40:13;100611.84;;;20.74;86.36
2339;BME280;1180;51.438;6.978;2022-07-23T07:42:46;100619.94;;;20.81;86.61
2339;BME280;1180;51.438;6.978;2022-07-23T07:45:11;100618.97;;;21.00;86.17
2339;BME280;1180;51.438;6.978;2022-07-23T07:47:37;100627.31;;;20.85;85.66
2339;BME280;1180;51.438;6.978;2022-07-23T07:50:02;100620.75;;;20.81;85.19
2339;BME280;1180;51.438;6.978;2022-07-23T07:52:30;100622.75;;;20.87;85.04
2339;BME280;1180;51.438;6.978;2022-07-23T07:54:55;100629.84;;;20.95;84.73
2339;BME280;1180;51.438;6.978;2022-07-23T07:57:20;100628.94;;;21.04;85.86
2339;BME280;1180;51.438;6.978;2022-07-23T07:59:46;100627.22;;;21.13;85.21
2339;BME280;1180;51.438;6.978;2022-07-23T08:02:11;100633.66;;;20.83;80.13
2339;BME280;1180;51.438;6.978;2022-07-23T08:04:37;100634.31;;;21.03;82.01
2339;BME280;1180;51.438;6.978;2022-07-23T08:07:02;100638.53;;;21.22;81.60
2339;BME280;1180;51.438;6.978;2022-07-23T08:09:28;100637.97;;;21.10;79.36
2339;BME280;1180;51.438;6.978;2022-07-23T08:11:53;100640.78;;;21.17;78.66
2339;BME280;1180;51.438;6.978;2022-07-23T08:14:18;100649.31;;;21.01;80.14
2339;BME280;1180;51.438;6.978;2022-07-23T08:16:44;100638.50;;;20.96;79.95
2339;BME280;1180;51.438;6.978;2022-07-23T08:19:09;100644.81;;;20.93;80.96
2339;BME280;1180;51.438;6.978;2022-07-23T08:21:35;100648.91;;;21.32;79.62
2339;BME280;1180;51.438;6.978;2022-07-23T08:24:00;100651.56;;;21.40;78.92
2339;BME280;1180;51.438;6.978;2022-07-23T08:26:25;100649.88;;;21.57;76.88
2339;BME280;1180;51.438;6.978;2022-07-23T08:28:51;100648.91;;;21.58;77.72
2339;BME280;1180;51.438;6.978;2022-07-23T08:31:16;100650.06;;;21.56;77.75
2339;BME280;1180;51.438;6.978;2022-07-23T08:33:42;100654.56;;;21.27;78.95
2339;BME280;1180;51.438;6.978;2022-07-23T08:36:08;100650.94;;;21.02;78.53
2339;BME280;1180;51.438;6.978;2022-07-23T08:38:34;100653.47;;;20.94;79.31
2339;BME280;1180;51.438;6.978;2022-07-23T08:41:14;100651.34;;;21.33;79.23
2339;BME280;1180;51.438;6.978;2022-07-23T08:43:42;100652.34;;;21.14;79.23
2339;BME280;1180;51.438;6.978;2022-07-23T08:46:08;100653.84;;;20.99;77.47
2339;BME280;1180;51.438;6.978;2022-07-23T08:48:35;100658.50;;;21.31;77.98
2339;BME280;1180;51.438;6.978;2022-07-23T08:51:04;100653.78;;;21.53;74.53
2339;BME280;1180;51.438;6.978;2022-07-23T08:53:30;100667.47;;;21.73;74.90
2339;BME280;1180;51.438;6.978;2022-07-23T08:55:57;100656.72;;;21.76;74.61
2339;BME280;1180;51.438;6.978;2022-07-23T08:58:23;100661.06;;;21.94;72.73
2339;BME280;1180;51.438;6.978;2022-07-23T09:00:49;100660.66;;;22.15;72.38
2339;BME280;1180;51.438;6.978;2022-07-23T09:03:19;100661.47;;;22.16;71.08
2339;BME280;1180;51.438;6.978;2022-07-23T09:05:45;100661.97;;;21.85;71.21
2339;BME280;1180;51.438;6.978;2022-07-23T09:08:16;100662.84;;;21.41;72.85
2339;BME280;1180;51.438;6.978;2022-07-23T09:10:57;100671.03;;;21.64;71.52
2339;BME280;1180;51.438;6.978;2022-07-23T09:18:56;100672.91;;;22.15;68.86
2339;BME280;1180;51.438;6.978;2022-07-23T09:21:29;100669.22;;;21.91;69.61
2339;BME280;1180;51.438;6.978;2022-07-23T09:26:45;100669.16;;;21.38;71.54
2339;BME280;1180;51.438;6.978;2022-07-23T09:29:24;100662.66;;;21.42;71.47
2339;BME280;1180;51.438;6.978;2022-07-23T09:31:54;100667.25;;;21.67;73.00
2339;BME280;1180;51.438;6.978;2022-07-23T09:34:33;100665.22;;;22.13;71.25
2339;BME280;1180;51.438;6.978;2022-07-23T09:37:17;100672.25;;;22.47;68.95
2339;BME280;1180;51.438;6.978;2022-07-23T09:39:45;100673.09;;;22.56;67.47
2339;BME280;1180;51.438;6.978;2022-07-23T09:42:15;100671.38;;;22.39;66.11
2339;BME280;1180;51.438;6.978;2022-07-23T09:44:42;100665.56;;;22.10;66.64
2339;BME280;1180;51.438;6.978;2022-07-23T09:47:08;100674.53;;;22.16;68.90
2339;BME280;1180;51.438;6.978;2022-07-23T09:49:33;100672.59;;;22.53;68.87
2339;BME280;1180;51.438;6.978;2022-07-23T09:52:00;100667.09;;;22.72;67.60
2339;BME280;1180;51.438;6.978;2022-07-23T09:54:38;100662.19;;;22.86;65.39
2339;BME280;1180;51.438;6.978;2022-07-23T09:57:09;100669.56;;;23.07;65.77
2339;BME280;1180;51.438;6.978;2022-07-23T09:59:39;100670.84;;;22.78;66.89
2339;BME280;1180;51.438;6.978;2022-07-23T10:02:06;100662.00;;;22.62;65.25
2339;BME280;1180;51.438;6.978;2022-07-23T10:04:32;100670.72;;;22.45;67.47
2339;BME280;1180;51.438;6.978;2022-07-23T10:07:01;100663.97;;;22.85;67.59
2339;BME280;1180;51.438;6.978;2022-07-23T10:09:29;100671.38;;;23.06;66.76
2339;BME280;1180;51.438;6.978;2022-07-23T10:11:56;100666.94;;;22.90;66.25
2339;BME280;1180;51.438;6.978;2022-07-23T10:14:26;100664.66;;;23.04;65.68
2339;BME280;1180;51.438;6.978;2022-07-23T10:16:52;100668.09;;;23.13;64.88
2339;BME280;1180;51.438;6.978;2022-07-23T10:19:18;100662.69;;;23.39;63.72
2339;BME280;1180;51.438;6.978;2022-07-23T10:21:47;100670.41;;;23.41;63.95
2339;BME280;1180;51.438;6.978;2022-07-23T10:30:06;100661.56;;;23.33;64.35
2339;BME280;1180;51.438;6.978;2022-07-23T10:32:46;100662.53;;;23.49;65.44
2339;BME280;1180;51.438;6.978;2022-07-23T10:35:25;100663.66;;;23.63;62.78
2339;BME280;1180;51.438;6.978;2022-07-23T10:38:13;100661.97;;;23.78;62.22
2339;BME280;1180;51.438;6.978;2022-07-23T10:40:57;100654.41;;;23.92;60.98
2339;BME280;1180;51.438;6.978;2022-07-23T10:43:24;100657.53;;;23.87;61.44
2339;BME280;1180;51.438;6.978;2022-07-23T10:45:50;100656.69;;;23.95;62.48
2339;BME280;1180;51.438;6.978;2022-07-23T10:48:22;100657.16;;;23.99;60.02
2339;BME280;1180;51.438;6.978;2022-07-23T10:51:12;100657.81;;;23.92;60.37
2339;BME280;1180;51.438;6.978;2022-07-23T10:53:58;100654.72;;;23.97;60.78
2339;BME280;1180;51.438;6.978;2022-07-23T10:59:19;100654.81;;;24.20;59.94
2339;BME280;1180;51.438;6.978;2022-07-23T11:01:45;100655.19;;;24.41;59.77
2339;BME280;1180;51.438;6.978;2022-07-23T11:04:11;100655.88;;;24.34;60.33
2339;BME280;1180;51.438;6.978;2022-07-23T11:15:12;100653.47;;;23.76;61.31
2339;BME280;1180;51.438;6.978;2022-07-23T11:25:13;100643.28;;;23.90;60.30
2339;BME280;1180;51.438;6.978;2022-07-23T11:27:42;100645.13;;;23.64;61.68
2339;BME280;1180;51.438;6.978;2022-07-23T11:30:10;100643.97;;;23.75;58.23
2339;BME280;1180;51.438;6.978;2022-07-23T11:32:40;100652.72;;;24.07;60.11
2339;BME280;1180;51.438;6.978;2022-07-23T11:35:19;100646.00;;;23.97;58.24
2339;BME280;1180;51.438;6.978;2022-07-23T11:37:46;100648.28;;;24.16;58.21
2339;BME280;1180;51.438;6.978;2022-07-23T11:40:14;100654.22;;;23.93;58.16
2339;BME280;1180;51.438;6.978;2022-07-23T11:43:04;100658.41;;;24.19;57.57
2339;BME280;1180;51.438;6.978;2022-07-23T11:45:43;100651.88;;;24.15;56.02
2339;BME280;1180;51.438;6.978;2022-07-23T11:48:16;100649.41;;;24.14;57.78
2339;BME280;1180;51.438;6.978;2022-07-23T11:50:42;100644.25;;;24.29;56.96
2339;BME280;1180;51.438;6.978;2022-07-23T11:53:07;100652.78;;;24.62;58.16
2339;BME280;1180;51.438;6.978;2022-07-23T11:55:33;100650.03;;;25.02;55.23
2339;BME280;1180;51.438;6.978;2022-07-23T11:57:59;100651.97;;;25.08;56.80
2339;BME280;1180;51.438;6.978;2022-07-23T12:00:26;100652.34;;;24.74;55.38
2339;BME280;1180;51.438;6.978;2022-07-23T12:02:55;100646.72;;;24.85;55.90
2339;BME280;1180;51.438;6.978;2022-07-23T12:05:23;100645.66;;;24.71;55.87
2339;BME280;1180;51.438;6.978;2022-07-23T12:07:53;100645.19;;;24.67;56.17
2339;BME280;1180;51.438;6.978;2022-07-23T12:10:48;100637.78;;;25.18;56.81
2339;BME280;1180;51.438;6.978;2022-07-23T12:13:16;100633.09;;;25.43;54.09
2339;BME280;1180;51.438;6.978;2022-07-23T12:15:53;100638.66;;;25.48;54.72
2339;BME280;1180;51.438;6.978;2022-07-23T12:18:23;100630.78;;;25.63;53.68
2339;BME280;1180;51.438;6.978;2022-07-23T12:20:52;100636.94;;;25.56;52.63
2339;BME280;1180;51.438;6.978;2022-07-23T12:23:19;100638.34;;;25.43;53.08
2339;BME280;1180;51.438;6.978;2022-07-23T12:25:46;100637.50;;;25.66;52.13
2339;BME280;1180;51.438;6.978;2022-07-23T12:28:15;100639.53;;;25.41;49.40
2339;BME280;1180;51.438;6.978;2022-07-23T12:30:47;100635.16;;;25.18;51.14
2339;BME280;1180;51.438;6.978;2022-07-23T12:33:38;100642.28;;;25.47;51.61
2339;BME280;1180;51.438;6.978;2022-07-23T12:36:02;100637.66;;;25.79;49.27
2339;BME280;1180;51.438;6.978;2022-07-23T12:38:48;100635.00;;;25.94;51.50
2339;BME280;1180;51.438;6.978;2022-07-23T12:41:14;100642.00;;;26.17;48.60
2339;BME280;1180;51.438;6.978;2022-07-23T12:43:42;100647.88;;;26.04;50.37
2339;BME280;1180;51.438;6.978;2022-07-23T12:46:17;100635.84;;;25.95;49.25
2339;BME280;1180;51.438;6.978;2022-07-23T12:53:51;100645.53;;;25.79;51.11
2339;BME280;1180;51.438;6.978;2022-07-23T12:56:26;100649.78;;;26.26;50.91
2339;BME280;1180;51.438;6.978;2022-07-23T12:58:55;100652.31;;;26.56;49.39
2339;BME280;1180;51.438;6.978;2022-07-23T13:01:25;100653.66;;;26.30;50.05
2339;BME280;1180;51.438;6.978;2022-07-23T13:04:15;100652.19;;;26.42;49.88
2339;BME280;1180;51.438;6.978;2022-07-23T13:06:45;100657.75;;;26.76;48.75
2339;BME280;1180;51.438;6.978;2022-07-23T13:09:22;100651.81;;;27.10;48.69
2339;BME280;1180;51.438;6.978;2022-07-23T13:11:49;100657.09;;;27.39;47.66
2339;BME280;1180;51.438;6.978;2022-07-23T13:14:16;100644.22;;;27.51;46.20
2339;BME280;1180;51.438;6.978;2022-07-23T13:16:42;100653.34;;;27.55;46.34
2339;BME280;1180;51.438;6.978;2022-07-23T13:19:07;100660.38;;;26.91;46.43
2339;BME280;1180;51.438;6.978;2022-07-23T13:21:33;100652.50;;;27.19;47.59
2339;BME280;1180;51.438;6.978;2022-07-23T13:23:59;100654.31;;;27.19;46.05
2339;BME280;1180;51.438;6.978;2022-07-23T13:26:25;100656.94;;;27.19;45.89
2339;BME280;1180;51.438;6.978;2022-07-23T13:28:51;100657.22;;;27.31;46.22
2339;BME280;1180;51.438;6.978;2022-07-23T13:31:17;100647.25;;;27.19;46.35
2339;BME280;1180;51.438;6.978;2022-07-23T13:33:42;100659.78;;;26.74;46.62
2339;BME280;1180;51.438;6.978;2022-07-23T13:36:08;100655.63;;;26.43;47.24
2339;BME280;1180;51.438;6.978;2022-07-23T13:38:34;100657.13;;;26.15;48.51
2339;BME280;1180;51.438;6.978;2022-07-23T13:40:59;100642.22;;;26.37;47.89
2339;BME280;1180;51.438;6.978;2022-07-23T13:43:25;100642.09;;;26.67;48.53
2339;BME280;1180;51.438;6.978;2022-07-23T13:45:52;100645.47;;;26.83;48.02